Time;durP1;ratioP1;P1;durP2;ratioP2;P2;SDS_P1;SDS_P2;PMS_P1;PMS_P2;Temp;Humidity;BMP_temperature;BMP_pressure;BME280_temperature;BME280_humidity;BME280_pressure;Samples;Min_cycle;Max_cycle;Signal;HPM_P1;HPM_P2
2023/07/13 00:01:55;;;;;;;2.95;1.33;;;21.30;99.90;;;;;;5018252;28;20084;-69
2023/07/13 00:04:25;;;;;;;7.22;1.40;;;21.40;99.90;;;;;;5018231;28;20097;-69
2023/07/13 00:07:09;;;;;;;3.92;2.13;;;21.30;99.90;;;;;;5018110;28;20123;-68
2023/07/13 00:09:35;;;;;;;2.50;1.10;;;21.10;99.90;;;;;;5019316;28;20091;-68
2023/07/13 00:12:00;;;;;;;4.72;1.35;;;21.00;99.90;;;;;;5019031;28;20026;-69
2023/07/13 00:14:28;;;;;;;2.67;1.20;;;21.00;99.90;;;;;;5018106;28;20029;-69
2023/07/13 00:16:54;;;;;;;1.75;0.80;;;20.90;99.90;;;;;;5017987;28;20138;-68
2023/07/13 00:19:20;;;;;;;6.70;1.40;;;21.10;99.90;;;;;;5018752;28;20018;-68
2023/07/13 00:21:46;;;;;;;2.60;1.20;;;21.10;99.90;;;;;;5018128;28;20026;-68
2023/07/13 00:24:23;;;;;;;3.92;1.60;;;21.10;99.90;;;;;;5017745;28;20056;-69
2023/07/13 00:26:48;;;;;;;6.68;1.33;;;21.30;99.90;;;;;;5019018;28;20034;-68
2023/07/13 00:29:14;;;;;;;4.03;1.10;;;21.20;99.90;;;;;;5017425;28;20036;-68
2023/07/13 00:31:40;;;;;;;2.40;1.00;;;21.20;99.90;;;;;;5016740;28;20030;-69
2023/07/13 00:34:06;;;;;;;2.58;1.17;;;21.20;99.90;;;;;;5018141;28;20029;-69
2023/07/13 00:36:32;;;;;;;5.70;1.38;;;21.30;99.90;;;;;;5018134;28;20021;-69
2023/07/13 00:38:57;;;;;;;7.80;1.17;;;21.40;99.90;;;;;;5018074;28;20113;-68
2023/07/13 00:41:23;;;;;;;4.03;1.30;;;21.30;99.90;;;;;;5017982;28;20022;-68
2023/07/13 00:43:48;;;;;;;3.40;1.17;;;21.40;99.90;;;;;;5017944;28;20022;-68
2023/07/13 00:46:28;;;;;;;2.72;1.02;;;21.40;99.90;;;;;;5017692;28;20117;-68
2023/07/13 00:49:02;;;;;;;4.55;1.30;;;21.40;99.90;;;;;;5017496;28;20026;-68
2023/07/13 00:51:34;;;;;;;6.03;1.10;;;21.10;99.90;;;;;;5017535;28;20030;-69
2023/07/13 00:54:04;;;;;;;3.42;0.90;;;21.20;99.90;;;;;;5017467;28;20025;-69
2023/07/13 00:56:32;;;;;;;4.10;1.37;;;21.40;99.90;;;;;;5018166;28;20033;-69
2023/07/13 00:58:59;;;;;;;2.75;0.82;;;21.40;99.90;;;;;;5018130;28;20261;-69
2023/07/13 01:01:24;;;;;;;3.72;0.90;;;21.60;99.90;;;;;;5017859;28;20029;-69
2023/07/13 01:03:50;;;;;;;1.90;0.80;;;21.50;99.90;;;;;;5017787;28;20089;-69
2023/07/13 01:06:17;;;;;;;2.55;1.00;;;21.50;99.90;;;;;;5017914;28;20029;-69
2023/07/13 01:08:43;;;;;;;3.53;1.00;;;21.60;99.90;;;;;;5018439;28;20104;-69
2023/07/13 01:11:08;;;;;;;3.33;1.10;;;21.40;99.90;;;;;;5017330;28;20068;-68
2023/07/13 01:13:34;;;;;;;4.80;1.02;;;21.30;99.90;;;;;;5017392;28;20030;-69
2023/07/13 01:16:05;;;;;;;2.47;1.13;;;21.20;99.90;;;;;;5017258;28;20048;-69
2023/07/13 01:18:32;;;;;;;5.63;1.40;;;21.30;99.90;;;;;;5017901;28;20024;-69
2023/07/13 01:20:59;;;;;;;6.82;1.15;;;21.30;99.90;;;;;;5017772;28;20033;-69
2023/07/13 01:23:26;;;;;;;7.63;1.40;;;21.10;99.90;;;;;;5016890;28;20065;-69
2023/07/13 01:25:52;;;;;;;2.08;0.95;;;21.00;99.90;;;;;;5017319;28;20033;-69
2023/07/13 01:28:18;;;;;;;1.90;1.00;;;21.00;99.90;;;;;;5017659;28;20029;-69
2023/07/13 01:30:45;;;;;;;5.85;1.17;;;20.90;99.90;;;;;;5016367;28;20026;-69
2023/07/13 01:33:13;;;;;;;4.63;1.20;;;20.80;99.90;;;;;;5016707;28;20061;-69
2023/07/13 01:35:40;;;;;;;2.13;1.00;;;20.90;99.90;;;;;;5016678;28;20029;-69
2023/07/13 01:38:05;;;;;;;3.90;1.65;;;21.00;99.90;;;;;;5017475;28;20025;-68
2023/07/13 01:40:31;;;;;;;4.35;1.08;;;21.00;99.90;;;;;;5016649;28;20028;-69
2023/07/13 01:42:58;;;;;;;5.10;1.40;;;21.00;99.90;;;;;;5016961;28;20030;-68
2023/07/13 01:45:24;;;;;;;2.03;1.10;;;20.90;99.90;;;;;;5016590;28;20022;-69
2023/07/13 01:47:50;;;;;;;2.17;1.30;;;20.80;99.90;;;;;;5016874;28;20072;-69
2023/07/13 01:50:15;;;;;;;2.25;0.90;;;20.80;99.90;;;;;;5017567;28;20029;-69
2023/07/13 01:52:41;;;;;;;3.60;1.00;;;20.80;99.90;;;;;;5016289;28;20026;-69
2023/07/13 01:55:07;;;;;;;6.43;0.95;;;20.90;99.90;;;;;;5016467;28;20168;-68
2023/07/13 01:57:33;;;;;;;1.92;1.30;;;20.80;99.90;;;;;;5017128;28;20037;-69
2023/07/13 01:59:58;;;;;;;3.17;1.00;;;20.80;99.90;;;;;;5016462;28;20026;-69
2023/07/13 02:02:24;;;;;;;3.75;0.95;;;20.90;99.90;;;;;;5016383;28;20180;-69
2023/07/13 02:04:50;;;;;;;3.13;1.30;;;20.90;99.90;;;;;;5016737;28;20032;-69
2023/07/13 02:07:15;;;;;;;2.63;1.33;;;20.90;99.90;;;;;;5016323;28;20109;-68
2023/07/13 02:09:42;;;;;;;3.55;1.00;;;20.80;99.90;;;;;;5016336;28;20029;-69
2023/07/13 02:12:08;;;;;;;3.00;0.75;;;20.90;99.90;;;;;;5017264;28;20018;-69
2023/07/13 02:14:33;;;;;;;1.75;0.75;;;21.00;99.90;;;;;;5016489;28;20072;-69
2023/07/13 02:16:59;;;;;;;4.60;1.20;;;21.00;99.90;;;;;;5016357;28;20022;-69
2023/07/13 02:19:25;;;;;;;5.00;1.15;;;21.00;99.90;;;;;;5017061;28;20025;-69
2023/07/13 02:21:50;;;;;;;3.72;0.93;;;21.00;99.90;;;;;;5017230;28;20030;-69
2023/07/13 02:24:17;;;;;;;2.38;0.70;;;21.00;99.90;;;;;;5016302;28;20069;-69
2023/07/13 02:26:44;;;;;;;1.98;0.80;;;21.00;99.90;;;;;;5016922;28;20018;-69
2023/07/13 02:29:10;;;;;;;1.10;0.80;;;20.90;99.90;;;;;;5016309;28;20030;-69
2023/07/13 02:31:36;;;;;;;5.88;1.17;;;20.80;99.90;;;;;;5016185;28;20044;-69
2023/07/13 02:34:02;;;;;;;2.13;0.90;;;20.70;99.90;;;;;;5016635;28;20014;-69
2023/07/13 02:36:28;;;;;;;6.25;1.20;;;20.60;99.90;;;;;;5016030;28;20026;-68
2023/07/13 02:38:54;;;;;;;1.73;0.70;;;20.60;99.90;;;;;;5016879;28;20026;-69
2023/07/13 02:41:19;;;;;;;4.65;1.10;;;20.60;99.90;;;;;;5017982;28;20030;-69
2023/07/13 02:43:45;;;;;;;7.78;1.20;;;20.70;99.90;;;;;;5019920;28;20076;-69
2023/07/13 02:46:10;;;;;;;10.27;1.20;;;20.70;99.90;;;;;;5020048;28;20030;-68
2023/07/13 02:48:38;;;;;;;2.22;1.02;;;20.50;99.90;;;;;;5020331;28;20050;-69
2023/07/13 02:51:04;;;;;;;2.47;0.85;;;20.60;99.90;;;;;;5020549;28;20029;-69
2023/07/13 02:53:30;;;;;;;3.85;0.80;;;20.50;99.90;;;;;;5019636;28;20041;-69
2023/07/13 02:55:56;;;;;;;2.38;1.00;;;20.40;99.90;;;;;;5019885;28;20061;-69
2023/07/13 02:58:21;;;;;;;4.15;0.98;;;20.30;99.90;;;;;;5019195;28;20022;-68
2023/07/13 03:00:49;;;;;;;6.22;1.23;;;20.10;99.90;;;;;;5000142;28;20076;-68
2023/07/13 03:03:16;;;;;;;4.32;1.40;;;19.90;99.90;;;;;;4999936;28;20056;-68
2023/07/13 03:05:42;;;;;;;5.82;1.25;;;19.90;99.90;;;;;;5000223;28;20026;-68
2023/07/13 03:08:09;;;;;;;4.13;1.48;;;19.90;99.90;;;;;;4999868;28;20022;-68
2023/07/13 03:10:35;;;;;;;6.10;1.05;;;19.80;99.90;;;;;;5000128;28;20033;-69
2023/07/13 03:13:01;;;;;;;2.42;0.82;;;19.80;99.90;;;;;;4999794;28;20026;-69
2023/07/13 03:15:27;;;;;;;3.63;1.00;;;19.70;99.90;;;;;;5000575;28;20142;-68
2023/07/13 03:17:53;;;;;;;4.43;0.90;;;19.70;99.90;;;;;;5000711;28;20026;-68
2023/07/13 03:20:19;;;;;;;2.35;0.77;;;19.90;99.90;;;;;;5000521;28;20086;-69
2023/07/13 03:22:44;;;;;;;8.93;1.65;;;20.00;99.90;;;;;;4999903;28;20037;-69
2023/07/13 03:25:10;;;;;;;7.93;1.10;;;19.90;99.90;;;;;;4999970;28;20034;-68
2023/07/13 03:27:37;;;;;;;3.65;0.80;;;19.90;99.90;;;;;;5000285;28;20065;-68
2023/07/13 03:30:06;;;;;;;6.68;1.20;;;19.90;99.90;;;;;;4999557;28;20030;-68
2023/07/13 03:32:32;;;;;;;3.65;0.98;;;19.80;99.90;;;;;;4999216;28;20026;-68
2023/07/13 03:34:58;;;;;;;5.07;1.13;;;19.50;99.90;;;;;;4999362;28;20026;-68
2023/07/13 03:37:24;;;;;;;1.80;1.10;;;19.30;99.90;;;;;;4999767;28;20054;-69
2023/07/13 03:39:50;;;;;;;4.72;1.20;;;19.10;99.90;;;;;;5000085;28;20106;-68
2023/07/13 03:42:15;;;;;;;1.92;0.82;;;19.00;99.90;;;;;;4999497;28;20030;-68
2023/07/13 03:44:42;;;;;;;2.80;1.10;;;19.20;99.90;;;;;;4999487;28;20033;-68
2023/07/13 03:47:23;;;;;;;2.65;0.80;;;19.50;99.90;;;;;;4999253;28;20027;-68
2023/07/13 03:49:49;;;;;;;2.08;0.80;;;19.70;99.90;;;;;;4999636;28;20038;-68
2023/07/13 03:52:14;;;;;;;6.20;1.02;;;19.80;99.90;;;;;;4998369;28;20034;-69
2023/07/13 03:54:40;;;;;;;7.30;1.23;;;19.90;99.90;;;;;;4998931;28;20113;-68
2023/07/13 03:57:06;;;;;;;4.38;1.00;;;19.80;99.90;;;;;;4999749;28;20105;-69
2023/07/13 03:59:32;;;;;;;3.58;0.73;;;19.90;99.90;;;;;;4999116;28;20025;-68
2023/07/13 04:01:57;;;;;;;2.10;0.85;;;19.90;99.90;;;;;;4998993;28;20026;-69
2023/07/13 04:04:23;;;;;;;5.57;1.50;;;19.90;99.90;;;;;;4998799;28;20057;-68
2023/07/13 04:06:49;;;;;;;7.03;0.90;;;20.00;99.90;;;;;;4999376;28;20026;-69
2023/07/13 04:09:14;;;;;;;2.95;0.98;;;19.90;99.90;;;;;;4999099;28;20037;-69
2023/07/13 04:11:40;;;;;;;7.45;1.00;;;19.90;99.90;;;;;;4998697;28;20026;-69
2023/07/13 04:14:05;;;;;;;10.90;1.75;;;19.90;99.90;;;;;;4998694;28;20093;-69
2023/07/13 04:16:32;;;;;;;6.15;1.10;;;19.80;99.90;;;;;;4998623;28;20023;-69
2023/07/13 04:18:59;;;;;;;9.10;1.30;;;19.90;99.90;;;;;;4998828;28;20029;-68
2023/07/13 04:21:29;;;;;;;3.85;1.52;;;19.90;99.90;;;;;;4999740;28;20018;-69
2023/07/13 04:23:54;;;;;;;5.03;1.17;;;19.80;99.90;;;;;;4998632;28;20041;-69
2023/07/13 04:26:20;;;;;;;3.10;1.02;;;19.80;99.90;;;;;;4998879;28;20030;-69
2023/07/13 04:28:47;;;;;;;4.28;1.00;;;19.80;99.90;;;;;;4998719;28;20117;-68
2023/07/13 04:31:13;;;;;;;3.20;1.02;;;19.70;99.90;;;;;;4998443;28;20030;-68
2023/07/13 04:33:38;;;;;;;2.80;1.08;;;19.70;99.90;;;;;;4998390;28;20026;-68
2023/07/13 04:36:04;;;;;;;5.03;1.00;;;19.70;99.90;;;;;;4998635;28;20027;-69
2023/07/13 04:38:31;;;;;;;5.32;0.90;;;19.70;99.90;;;;;;4998183;28;20033;-68
2023/07/13 04:40:58;;;;;;;5.75;1.00;;;19.70;99.90;;;;;;4998371;28;20114;-68
2023/07/13 04:43:24;;;;;;;5.93;0.80;;;19.60;99.90;;;;;;4998345;28;20084;-68
2023/07/13 04:45:51;;;;;;;6.22;1.00;;;19.50;99.90;;;;;;4998511;28;20026;-69
2023/07/13 04:48:17;;;;;;;3.45;1.05;;;19.30;99.90;;;;;;4997952;28;20026;-68
2023/07/13 04:50:43;;;;;;;4.90;1.45;;;19.20;99.90;;;;;;5017309;28;20048;-69
2023/07/13 04:53:10;;;;;;;4.75;0.98;;;19.20;99.90;;;;;;5017459;28;20026;-69
2023/07/13 04:55:36;;;;;;;3.65;1.10;;;19.20;99.90;;;;;;5017716;28;20026;-68
2023/07/13 04:58:02;;;;;;;10.07;1.00;;;19.20;99.90;;;;;;5017874;28;20165;-68
2023/07/13 05:00:29;;;;;;;4.70;1.27;;;19.20;99.90;;;;;;5014216;28;20113;-68
2023/07/13 05:02:58;;;;;;;2.90;0.90;;;19.20;99.90;;;;;;5014032;28;20062;-68
2023/07/13 05:05:25;;;;;;;8.55;1.77;;;19.20;99.90;;;;;;5014016;28;20026;-68
2023/07/13 05:07:51;;;;;;;8.80;1.25;;;19.20;99.90;;;;;;5014360;28;20031;-68
2023/07/13 05:10:16;;;;;;;4.10;0.93;;;19.20;99.90;;;;;;5014772;28;20077;-68
2023/07/13 05:12:42;;;;;;;4.95;1.60;;;19.20;99.90;;;;;;5014831;28;20041;-69
2023/07/13 05:15:08;;;;;;;4.57;1.58;;;19.30;99.90;;;;;;4998836;28;20029;-68
2023/07/13 05:17:33;;;;;;;6.57;1.33;;;19.30;99.90;;;;;;4998388;28;20022;-69
2023/07/13 05:19:59;;;;;;;9.73;1.60;;;19.30;99.90;;;;;;5013879;28;20125;-69
2023/07/13 05:22:25;;;;;;;5.93;1.80;;;19.30;99.90;;;;;;4998388;28;20034;-69
2023/07/13 05:24:50;;;;;;;2.50;1.42;;;19.40;99.90;;;;;;5013834;28;20034;-68
2023/07/13 05:27:16;;;;;;;5.43;1.17;;;19.40;99.90;;;;;;5013573;28;20033;-68
2023/07/13 05:29:41;;;;;;;4.50;1.15;;;19.40;99.90;;;;;;5013847;28;20031;-68
2023/07/13 05:32:07;;;;;;;8.73;1.00;;;19.30;99.90;;;;;;4998183;28;20030;-68
2023/07/13 05:34:33;;;;;;;10.07;1.27;;;19.40;99.90;;;;;;4998550;28;20088;-69
2023/07/13 05:36:58;;;;;;;3.42;0.98;;;19.40;99.90;;;;;;5014178;28;20030;-69
2023/07/13 05:39:24;;;;;;;4.47;1.52;;;19.50;99.90;;;;;;5013581;28;20037;-68
2023/07/13 05:41:50;;;;;;;3.45;1.33;;;19.40;99.90;;;;;;5013484;28;20030;-68
2023/07/13 05:44:15;;;;;;;6.53;1.42;;;19.40;99.90;;;;;;4998120;28;20034;-68
2023/07/13 05:46:41;;;;;;;4.75;1.20;;;19.40;99.90;;;;;;4998167;28;20026;-68
2023/07/13 05:49:06;;;;;;;4.35;1.00;;;19.50;99.90;;;;;;4997900;28;20051;-69
2023/07/13 05:51:32;;;;;;;3.10;1.00;;;19.70;99.90;;;;;;4997879;28;20030;-69
2023/07/13 05:53:57;;;;;;;4.93;1.27;;;19.70;99.90;;;;;;5013126;28;20026;-68
2023/07/13 05:56:23;;;;;;;5.28;1.00;;;19.80;99.90;;;;;;4998233;28;20047;-68
2023/07/13 05:58:49;;;;;;;3.22;0.90;;;19.60;99.90;;;;;;4997784;28;20022;-68
2023/07/13 06:01:36;;;;;;;3.30;0.82;;;19.50;99.90;;;;;;5006262;28;20026;-68
2023/07/13 06:04:02;;;;;;;3.42;1.00;;;19.30;99.90;;;;;;5017237;28;20087;-68
2023/07/13 06:06:28;;;;;;;4.95;0.93;;;19.30;99.90;;;;;;5013339;28;20022;-68
2023/07/13 06:08:57;;;;;;;3.70;0.73;;;19.20;99.90;;;;;;5012972;28;20037;-68
2023/07/13 06:11:24;;;;;;;5.10;1.20;;;19.30;99.90;;;;;;5013292;28;20026;-67
2023/07/13 06:13:50;;;;;;;3.72;0.70;;;19.20;99.90;;;;;;5012679;28;20117;-67
2023/07/13 06:16:16;;;;;;;4.65;1.10;;;19.30;99.90;;;;;;4997056;28;20076;-68
2023/07/13 06:18:42;;;;;;;6.82;1.00;;;19.30;99.90;;;;;;5016284;28;20113;-68
2023/07/13 06:21:16;;;;;;;6.07;1.50;;;19.50;99.90;;;;;;5016517;28;20029;-68
2023/07/13 06:23:43;;;;;;;3.72;1.10;;;19.50;99.90;;;;;;5016144;28;20034;-68
2023/07/13 06:26:08;;;;;;;2.58;1.00;;;19.50;99.90;;;;;;5017278;28;20152;-68
2023/07/13 06:28:35;;;;;;;3.80;1.20;;;19.60;99.90;;;;;;5016206;28;20113;-68
2023/07/13 06:31:10;;;;;;;3.85;0.98;;;19.60;99.90;;;;;;5016155;28;20022;-68
2023/07/13 06:33:37;;;;;;;5.55;0.80;;;19.70;99.90;;;;;;5015800;28;20093;-68
2023/07/13 06:36:04;;;;;;;3.35;0.73;;;19.70;99.90;;;;;;5016916;28;20033;-68
2023/07/13 06:38:30;;;;;;;3.55;1.20;;;19.70;99.90;;;;;;5017151;28;20026;-68
2023/07/13 06:40:56;;;;;;;4.53;1.00;;;19.60;99.90;;;;;;5015840;28;20116;-68
2023/07/13 06:43:21;;;;;;;4.43;0.80;;;19.70;99.90;;;;;;5016801;28;20059;-68
2023/07/13 06:45:49;;;;;;;2.05;0.80;;;19.80;99.90;;;;;;5016306;28;20032;-68
2023/07/13 06:48:16;;;;;;;2.55;0.80;;;19.70;99.90;;;;;;5016885;28;20044;-68
2023/07/13 06:50:42;;;;;;;2.38;0.82;;;19.70;99.90;;;;;;5016589;28;20026;-68
2023/07/13 06:53:08;;;;;;;6.85;1.25;;;19.70;99.90;;;;;;5015634;28;20030;-68
2023/07/13 06:55:34;;;;;;;3.95;0.95;;;19.80;99.90;;;;;;5016062;28;20072;-68
2023/07/13 06:57:59;;;;;;;2.25;0.70;;;19.90;99.90;;;;;;5015682;28;20022;-68
2023/07/13 07:00:25;;;;;;;3.83;1.10;;;20.00;99.90;;;;;;5016068;28;20053;-68
2023/07/13 07:02:58;;;;;;;7.90;1.08;;;20.00;99.90;;;;;;5016176;28;20032;-68
2023/07/13 07:05:23;;;;;;;3.28;0.80;;;20.00;99.90;;;;;;5015752;28;20025;-67
2023/07/13 07:07:54;;;;;;;3.13;1.02;;;20.10;99.90;;;;;;5016693;28;20060;-68
2023/07/13 07:10:22;;;;;;;2.33;0.80;;;20.20;99.90;;;;;;5015865;28;20026;-68
2023/07/13 07:12:48;;;;;;;2.47;0.80;;;20.30;99.90;;;;;;5016000;28;20026;-68
2023/07/13 07:15:13;;;;;;;3.58;1.08;;;20.50;99.90;;;;;;5015795;28;20145;-68
2023/07/13 07:17:39;;;;;;;4.80;0.93;;;20.50;99.90;;;;;;5015830;28;20133;-68
2023/07/13 07:20:05;;;;;;;2.40;1.48;;;20.60;99.90;;;;;;5015519;28;20029;-68
2023/07/13 07:22:31;;;;;;;3.25;1.00;;;20.70;99.90;;;;;;5016205;28;20097;-69
2023/07/13 07:24:57;;;;;;;4.88;1.00;;;20.80;99.90;;;;;;5015657;28;20064;-69
2023/07/13 07:27:24;;;;;;;4.25;0.88;;;20.90;99.90;;;;;;5016086;28;20034;-68
2023/07/13 07:29:50;;;;;;;5.38;0.98;;;21.00;99.90;;;;;;5019145;28;20029;-68
2023/07/13 07:32:16;;;;;;;2.13;0.90;;;21.00;99.90;;;;;;5018354;28;20076;-69
2023/07/13 07:34:41;;;;;;;4.35;0.95;;;21.00;99.90;;;;;;5016765;28;20026;-68
2023/07/13 07:37:10;;;;;;;1.75;0.68;;;21.10;99.90;;;;;;5018717;28;20036;-68
2023/07/13 07:39:35;;;;;;;3.08;0.90;;;21.10;99.90;;;;;;5018850;28;20046;-68
2023/07/13 07:42:02;;;;;;;5.88;1.00;;;21.10;99.90;;;;;;5023081;28;20018;-68
2023/07/13 07:44:40;;;;;;;3.30;0.85;;;21.20;99.90;;;;;;5019633;28;20045;-68
2023/07/13 07:47:17;;;;;;;2.25;0.70;;;21.10;99.90;;;;;;5018920;28;20026;-68
2023/07/13 07:49:46;;;;;;;2.05;0.75;;;21.20;99.90;;;;;;5018603;28;20049;-68
2023/07/13 07:52:49;;;;;;;1.65;0.93;;;21.30;99.90;;;;;;5019497;28;20030;-68
2023/07/13 07:55:57;;;;;;;6.78;0.90;;;21.40;99.90;;;;;;5018569;28;20033;-68
2023/07/13 07:58:37;;;;;;;1.83;0.70;;;21.50;99.90;;;;;;5018780;28;20061;-68
2023/07/13 08:01:06;;;;;;;3.33;0.80;;;21.70;99.90;;;;;;5018386;28;20029;-68
2023/07/13 08:03:34;;;;;;;2.33;0.85;;;21.60;99.90;;;;;;5018603;28;20109;-67
2023/07/13 08:06:00;;;;;;;4.05;0.80;;;21.60;99.90;;;;;;5018546;28;20067;-68
2023/07/13 08:08:34;;;;;;;2.72;0.70;;;21.70;99.90;;;;;;5018688;28;20114;-68
2023/07/13 08:11:07;;;;;;;3.50;0.80;;;21.70;99.90;;;;;;5018243;28;20061;-68
2023/07/13 08:16:54;;;;;;;;;;;22.00;99.90;;;;;;5019811;28;20072;-67
2023/07/13 08:19:44;;;;;;;3.30;0.82;;;22.00;99.90;;;;;;5018996;28;19909;-67
2023/07/13 08:22:13;;;;;;;1.08;0.60;;;22.00;99.90;;;;;;5018551;28;20057;-68
2023/07/13 08:24:42;;;;;;;4.65;1.20;;;22.10;99.90;;;;;;5016761;28;20100;-71
2023/07/13 08:27:11;;;;;;;6.13;0.73;;;22.00;99.90;;;;;;5018586;28;20021;-68
2023/07/13 08:29:37;;;;;;;11.48;1.15;;;22.00;99.90;;;;;;5005947;28;20040;-70
2023/07/13 08:32:08;;;;;;;3.10;1.15;;;22.00;99.90;;;;;;5017913;28;20117;-68
2023/07/13 08:34:52;;;;;;;2.67;1.20;;;22.10;99.90;;;;;;5018119;28;20026;-68
2023/07/13 08:37:19;;;;;;;1.70;0.77;;;22.10;99.90;;;;;;5017910;28;20053;-69
2023/07/13 08:39:52;;;;;;;2.22;0.60;;;21.90;99.90;;;;;;5017430;28;20032;-68
2023/07/13 08:42:18;;;;;;;2.33;0.57;;;21.70;99.90;;;;;;5018059;28;20048;-68
2023/07/13 08:45:11;;;;;;;2.72;0.80;;;21.70;99.90;;;;;;5017639;28;20022;-67
2023/07/13 08:47:42;;;;;;;3.28;0.80;;;21.80;99.90;;;;;;5018581;28;20030;-68
2023/07/13 08:50:13;;;;;;;1.67;0.65;;;21.90;99.90;;;;;;5018548;28;20068;-68
2023/07/13 08:52:41;;;;;;;4.47;0.80;;;22.00;99.90;;;;;;5018398;28;20026;-67
2023/07/13 08:55:20;;;;;;;2.47;0.50;;;22.10;99.90;;;;;;5017616;28;20033;-70
2023/07/13 08:57:56;;;;;;;1.75;0.50;;;22.10;99.90;;;;;;5017946;28;20026;-68
2023/07/13 09:00:40;;;;;;;0.95;0.50;;;22.20;99.90;;;;;;5017858;28;20026;-69
2023/07/13 09:03:31;;;;;;;1.50;0.60;;;22.40;99.90;;;;;;5018234;28;20025;-69
2023/07/13 09:05:59;;;;;;;1.48;0.50;;;22.40;99.90;;;;;;5017190;28;20037;-69
2023/07/13 09:08:37;;;;;;;4.20;0.60;;;22.40;99.90;;;;;;5017392;28;20041;-68
2023/07/13 09:11:36;;;;;;;2.30;0.73;;;22.50;99.90;;;;;;5017850;28;20042;-69
2023/07/13 09:14:20;;;;;;;2.50;0.40;;;22.70;99.90;;;;;;5017348;28;20033;-68
2023/07/13 09:16:48;;;;;;;3.13;1.23;;;22.90;99.90;;;;;;5017639;28;20064;-68
2023/07/13 09:19:25;;;;;;;2.78;0.65;;;23.10;99.90;;;;;;5017244;28;20026;-68
2023/07/13 09:21:59;;;;;;;1.85;0.70;;;23.20;99.90;;;;;;5018146;28;20048;-69
2023/07/13 09:24:42;;;;;;;1.05;0.60;;;23.20;99.40;;;;;;5009269;28;20026;-68
2023/07/13 09:27:38;;;;;;;0.55;0.43;;;23.20;99.00;;;;;;4997214;28;20062;-68
2023/07/13 09:30:13;;;;;;;1.88;0.60;;;23.30;99.00;;;;;;4998990;28;20018;-68
2023/07/13 09:32:44;;;;;;;3.15;0.70;;;23.50;97.90;;;;;;5016538;28;20026;-68
2023/07/13 09:35:12;;;;;;;1.85;0.90;;;23.60;97.40;;;;;;5016786;28;20026;-68
2023/07/13 09:37:48;;;;;;;2.35;0.80;;;23.50;97.00;;;;;;5017039;28;20022;-68
2023/07/13 09:40:40;;;;;;;2.08;1.00;;;23.60;97.50;;;;;;5017791;28;20022;-69
2023/07/13 09:43:10;;;;;;;1.60;0.80;;;23.70;96.20;;;;;;5007932;28;20038;-69
2023/07/13 09:45:36;;;;;;;4.38;0.70;;;23.70;96.00;;;;;;4997153;28;20030;-68
2023/07/13 09:48:10;;;;;;;2.45;0.47;;;23.70;95.90;;;;;;5013670;28;20023;-68
2023/07/13 09:50:36;;;;;;;2.28;0.60;;;23.60;95.90;;;;;;4996660;28;20030;-69
2023/07/13 09:53:02;;;;;;;1.55;0.55;;;23.60;95.90;;;;;;4996938;28;20027;-68
2023/07/13 09:55:35;;;;;;;2.25;1.08;;;23.60;95.20;;;;;;4996668;28;20022;-68
2023/07/13 09:58:19;;;;;;;3.92;1.38;;;23.50;95.40;;;;;;5009206;28;20028;-68
2023/07/13 10:01:04;;;;;;;1.80;1.33;;;23.50;95.40;;;;;;5015883;28;20021;-68
2023/07/13 10:03:37;;;;;;;2.83;1.65;;;23.60;96.10;;;;;;5015504;28;20037;-68
2023/07/13 10:06:19;;;;;;;3.78;1.55;;;23.70;95.90;;;;;;5016135;28;20097;-68
2023/07/13 10:08:46;;;;;;;3.85;0.95;;;23.80;95.80;;;;;;5016187;28;20026;-68
2023/07/13 10:11:20;;;;;;;0.70;0.50;;;23.80;96.00;;;;;;5016427;28;20117;-68
2023/07/13 10:13:56;;;;;;;1.58;0.80;;;23.90;96.00;;;;;;5016311;28;20025;-68
2023/07/13 10:16:24;;;;;;;1.30;0.60;;;24.00;95.70;;;;;;5030220;22;20025;-76
2023/07/13 10:18:55;;;;;;;1.70;0.75;;;24.10;95.70;;;;;;4974105;28;20081;-76
2023/07/13 10:21:23;;;;;;;3.60;0.85;;;24.20;95.70;;;;;;4968488;28;20018;-74
2023/07/13 10:23:54;;;;;;;1.05;0.80;;;24.20;95.20;;;;;;4967376;28;20027;-74
2023/07/13 10:26:32;;;;;;;3.33;1.00;;;24.30;94.90;;;;;;4965156;28;20093;-75
2023/07/13 10:29:04;;;;;;;6.25;0.60;;;24.50;95.10;;;;;;4973773;28;20107;-74
2023/07/13 10:31:30;;;;;;;4.75;1.10;;;24.70;94.60;;;;;;4957753;29;20027;-74
2023/07/13 10:34:13;;;;;;;1.27;0.77;;;24.90;93.60;;;;;;4964007;28;20027;-74
2023/07/13 10:36:47;;;;;;;1.67;0.80;;;24.80;94.30;;;;;;4973350;28;20118;-74
2023/07/13 10:39:27;;;;;;;1.88;0.40;;;24.90;93.60;;;;;;4975268;28;20027;-74
2023/07/13 10:41:58;;;;;;;0.60;0.43;;;24.90;93.30;;;;;;4988748;28;20019;-74
2023/07/13 10:44:28;;;;;;;2.50;0.60;;;24.90;92.80;;;;;;4993975;28;20027;-74
2023/07/13 10:47:06;;;;;;;1.75;0.82;;;25.00;93.10;;;;;;4966788;28;20028;-76
2023/07/13 10:49:33;;;;;;;2.92;0.60;;;25.00;92.40;;;;;;5009476;28;20153;-76
2023/07/13 10:51:59;;;;;;;2.25;0.57;;;25.10;91.10;;;;;;4982088;28;20026;-76
2023/07/13 10:54:32;;;;;;;5.18;1.25;;;24.90;91.60;;;;;;4958471;28;20023;-77
2023/07/13 10:57:21;;;;;;;0.80;0.50;;;24.70;91.20;;;;;;4974871;28;20050;-77
2023/07/13 11:00:12;;;;;;;2.83;0.70;;;24.60;91.30;;;;;;4975125;28;20019;-79
2023/07/13 11:02:38;;;;;;;1.48;0.60;;;24.40;91.90;;;;;;4957796;28;20023;-74
2023/07/13 11:05:31;;;;;;;4.00;0.93;;;24.50;92.20;;;;;;4959517;29;20027;-72
2023/07/13 11:08:15;;;;;;;3.78;0.60;;;24.80;92.00;;;;;;4967343;28;20022;-75
2023/07/13 11:10:55;;;;;;;1.90;1.00;;;24.90;91.00;;;;;;4980076;28;20042;-72
2023/07/13 11:13:45;;;;;;;2.58;0.63;;;24.60;91.40;;;;;;4980100;28;20053;-75
2023/07/13 11:16:20;;;;;;;3.25;0.63;;;24.60;91.30;;;;;;4973431;28;20066;-74
2023/07/13 11:18:50;;;;;;;1.05;0.40;;;24.70;91.80;;;;;;4980060;28;20038;-75
2023/07/13 11:21:21;;;;;;;1.63;0.70;;;24.70;92.10;;;;;;4980928;28;20031;-73
2023/07/13 11:24:01;;;;;;;3.40;0.80;;;24.80;91.90;;;;;;4980432;28;20026;-72
2023/07/13 11:26:45;;;;;;;2.42;0.52;;;24.90;91.30;;;;;;4979926;28;20057;-74
2023/07/13 11:29:37;;;;;;;2.13;0.68;;;24.70;91.50;;;;;;4980268;28;20035;-72
2023/07/13 11:32:29;;;;;;;2.90;0.68;;;24.70;91.80;;;;;;4969447;28;20050;-73
2023/07/13 11:34:55;;;;;;;2.03;0.88;;;24.90;91.30;;;;;;4978255;28;20035;-73
2023/07/13 11:37:23;;;;;;;4.80;0.90;;;25.20;91.00;;;;;;4979623;28;20115;-73
2023/07/13 11:39:51;;;;;;;2.97;0.73;;;25.50;90.50;;;;;;4980943;28;20097;-74
2023/07/13 11:42:18;;;;;;;3.65;0.60;;;25.80;90.40;;;;;;4979295;28;20027;-74
2023/07/13 11:44:46;;;;;;;7.30;1.20;;;25.80;90.00;;;;;;4979963;28;20030;-74
2023/07/13 11:47:21;;;;;;;1.25;0.70;;;25.80;89.70;;;;;;4979551;28;20031;-71
2023/07/13 11:49:52;;;;;;;1.58;0.55;;;25.70;89.90;;;;;;4979795;28;20089;-72
2023/07/13 11:52:29;;;;;;;0.68;0.50;;;25.60;89.50;;;;;;4979857;28;20113;-73
2023/07/13 11:54:56;;;;;;;2.35;1.02;;;25.60;90.00;;;;;;4980114;28;20070;-74
2023/07/13 11:57:33;;;;;;;1.75;0.60;;;25.60;89.60;;;;;;4979858;28;20034;-72
2023/07/13 12:00:02;;;;;;;3.55;0.77;;;25.50;89.80;;;;;;4979022;28;20088;-74
2023/07/13 12:02:33;;;;;;;3.10;0.68;;;25.60;89.10;;;;;;4979800;28;20031;-73
2023/07/13 12:05:02;;;;;;;1.20;0.52;;;25.50;90.90;;;;;;4970760;28;20046;-75
2023/07/13 12:07:30;;;;;;;2.53;0.80;;;25.40;90.80;;;;;;4973621;28;20027;-74
2023/07/13 12:10:09;;;;;;;1.85;0.65;;;25.60;90.00;;;;;;4968144;28;20046;-72
2023/07/13 12:12:35;;;;;;;4.90;0.80;;;25.70;87.90;;;;;;4979239;28;20034;-72
2023/07/13 12:15:05;;;;;;;2.22;0.60;;;25.70;88.10;;;;;;4978673;28;20026;-74
2023/07/13 12:17:31;;;;;;;3.95;1.17;;;25.60;89.40;;;;;;4978741;28;20042;-74
2023/07/13 12:19:57;;;;;;;0.75;0.60;;;25.70;88.30;;;;;;4979104;28;20031;-73
2023/07/13 12:22:23;;;;;;;4.65;0.80;;;25.80;86.60;;;;;;4980021;28;20065;-73
2023/07/13 12:24:49;;;;;;;2.95;1.30;;;25.80;85.30;;;;;;4979060;28;20027;-74
2023/07/13 12:27:27;;;;;;;6.78;2.40;;;25.80;85.70;;;;;;4978531;28;20095;-74
2023/07/13 12:30:01;;;;;;;1.85;0.85;;;25.70;86.40;;;;;;4979302;28;20086;-74
2023/07/13 12:32:29;;;;;;;3.50;0.88;;;25.70;85.00;;;;;;4978498;28;20031;-74
2023/07/13 12:35:14;;;;;;;3.28;1.30;;;25.90;85.10;;;;;;4978647;28;20023;-73
2023/07/13 12:37:42;;;;;;;4.28;0.70;;;26.00;83.40;;;;;;4979477;28;20054;-74
2023/07/13 12:40:19;;;;;;;1.85;0.93;;;25.80;84.30;;;;;;4978539;28;20026;-74
2023/07/13 12:42:50;;;;;;;6.35;1.20;;;25.70;85.10;;;;;;4978533;28;20027;-74
2023/07/13 12:45:28;;;;;;;1.45;0.80;;;25.60;85.00;;;;;;4978568;28;20031;-74
2023/07/13 12:48:05;;;;;;;3.55;1.02;;;25.60;86.50;;;;;;4978792;28;20152;-75
2023/07/13 12:50:38;;;;;;;0.93;0.47;;;25.60;87.70;;;;;;4979500;28;20035;-75
2023/07/13 12:53:09;;;;;;;0.98;0.50;;;25.50;88.00;;;;;;4978833;28;20114;-74
2023/07/13 12:55:49;;;;;;;1.70;0.70;;;25.50;90.60;;;;;;4978741;28;20019;-75
2023/07/13 12:58:39;;;;;;;1.30;0.73;;;25.50;89.00;;;;;;4975299;28;20024;-74
2023/07/13 13:01:05;;;;;;;0.98;0.65;;;25.90;89.50;;;;;;4952290;28;20061;-69
2023/07/13 13:03:49;;;;;;;1.83;0.60;;;25.80;88.20;;;;;;4973354;28;20034;-68
2023/07/13 13:06:15;;;;;;;3.95;0.80;;;25.80;87.50;;;;;;4984644;28;20035;-68